Time;durP1;ratioP1;P1;durP2;ratioP2;P2;SDS_P1;SDS_P2;PMS_P1;PMS_P2;Temp;Humidity;BMP_temperature;BMP_pressure;BME280_temperature;BME280_humidity;BME280_pressure;Samples;Min_cycle;Max_cycle;Signal;HPM_P1;HPM_P2
2022/12/08 00:02:18;;;;;;;2.70;0.90;;;4.30;99.90;;;;;;5114608;28;20437;-62
2022/12/08 00:10:24;;;;;;;2.60;1.20;;;4.10;99.90;;;;;;5099510;27;20428;-62
2022/12/08 00:12:51;;;;;;;2.13;1.00;;;4.00;99.90;;;;;;5136196;27;20521;-62
2022/12/08 00:15:18;;;;;;;3.80;1.10;;;3.90;99.90;;;;;;5135732;28;20863;-62
2022/12/08 00:17:45;;;;;;;2.30;0.90;;;3.90;99.90;;;;;;5135184;27;20483;-62
2022/12/08 00:20:12;;;;;;;2.40;1.30;;;3.90;99.90;;;;;;5135410;27;20468;-62
2022/12/08 00:22:40;;;;;;;1.80;1.00;;;3.90;99.90;;;;;;5135529;28;20656;-62
2022/12/08 00:25:07;;;;;;;1.57;0.87;;;4.00;99.90;;;;;;5135990;27;20501;-62
2022/12/08 00:27:34;;;;;;;3.27;1.23;;;4.10;99.90;;;;;;5135499;27;20491;-62
2022/12/08 00:30:01;;;;;;;2.47;0.90;;;4.20;99.90;;;;;;5139361;27;20546;-63
2022/12/08 00:32:28;;;;;;;3.53;0.97;;;4.20;99.90;;;;;;5140155;27;20493;-62
2022/12/08 00:34:55;;;;;;;1.67;0.97;;;4.10;99.90;;;;;;5140119;27;20495;-62
2022/12/08 00:37:22;;;;;;;2.43;0.90;;;4.00;99.90;;;;;;5139710;27;20479;-62
2022/12/08 00:39:50;;;;;;;2.00;0.90;;;3.90;99.90;;;;;;5139441;27;20502;-62
2022/12/08 00:42:17;;;;;;;15.23;8.53;;;3.70;99.90;;;;;;5139290;27;20509;-62
2022/12/08 00:44:45;;;;;;;2.73;1.13;;;3.40;99.90;;;;;;5140127;27;20422;-62
2022/12/08 00:47:13;;;;;;;2.63;0.90;;;3.20;99.90;;;;;;5139942;27;20806;-62
2022/12/08 00:49:40;;;;;;;2.50;1.10;;;2.90;99.90;;;;;;5140099;27;20430;-62
2022/12/08 00:52:07;;;;;;;2.03;1.00;;;2.70;99.90;;;;;;5138433;27;20461;-64
2022/12/08 00:54:37;;;;;;;1.53;0.90;;;2.60;99.90;;;;;;5138457;27;20816;-62
2022/12/08 00:57:06;;;;;;;4.87;1.07;;;2.70;99.90;;;;;;5139010;27;20415;-62
2022/12/08 00:59:32;;;;;;;3.90;1.10;;;2.70;99.90;;;;;;5137943;27;20517;-62
2022/12/08 01:01:59;;;;;;;1.70;1.00;;;2.70;99.90;;;;;;5138603;27;20487;-63
2022/12/08 01:04:26;;;;;;;3.03;0.97;;;2.80;99.90;;;;;;5138733;27;20559;-62
2022/12/08 01:06:54;;;;;;;4.20;0.93;;;3.00;99.90;;;;;;5138439;27;20797;-62
2022/12/08 01:09:21;;;;;;;2.83;1.10;;;3.30;99.90;;;;;;5138572;27;20418;-62
2022/12/08 01:11:48;;;;;;;1.80;0.87;;;3.30;99.90;;;;;;5138487;27;20458;-62
2022/12/08 01:14:17;;;;;;;3.13;1.00;;;3.30;99.90;;;;;;5138131;27;20844;-63
2022/12/08 01:16:44;;;;;;;1.70;0.90;;;3.30;99.90;;;;;;5137826;27;20780;-64
2022/12/08 01:19:15;;;;;;;3.77;1.00;;;3.30;99.90;;;;;;5138901;27;20516;-62
2022/12/08 01:21:42;;;;;;;2.83;1.37;;;3.20;99.90;;;;;;5137704;27;20422;-62
2022/12/08 01:24:11;;;;;;;2.70;1.10;;;3.20;99.90;;;;;;5138505;27;20899;-62
2022/12/08 01:26:38;;;;;;;2.50;1.33;;;3.10;99.90;;;;;;5139103;27;20518;-62
2022/12/08 01:29:05;;;;;;;1.80;0.80;;;3.10;99.90;;;;;;5138946;27;20458;-62
2022/12/08 01:31:34;;;;;;;3.30;1.43;;;3.20;99.90;;;;;;5139019;27;20754;-62
2022/12/08 01:34:00;;;;;;;3.33;1.00;;;3.20;99.90;;;;;;5137435;27;20484;-61
2022/12/08 01:36:30;;;;;;;3.03;0.90;;;3.20;99.90;;;;;;5137562;27;20638;-62
2022/12/08 01:39:00;;;;;;;3.20;0.90;;;3.00;99.90;;;;;;5136748;27;20490;-62
2022/12/08 01:41:29;;;;;;;1.80;1.07;;;2.90;99.90;;;;;;5137685;27;20459;-62
2022/12/08 01:43:59;;;;;;;2.30;1.10;;;2.70;99.90;;;;;;5138222;27;20475;-62
2022/12/08 01:46:28;;;;;;;3.63;1.20;;;2.70;99.90;;;;;;5137874;27;20471;-62
2022/12/08 01:49:01;;;;;;;2.43;1.60;;;2.70;99.90;;;;;;5137715;27;20418;-62
2022/12/08 01:51:29;;;;;;;1.60;1.00;;;2.70;99.90;;;;;;5137300;27;20480;-62
2022/12/08 01:53:56;;;;;;;2.63;1.03;;;2.60;99.90;;;;;;5138068;27;20988;-62
2022/12/08 01:56:28;;;;;;;1.70;0.93;;;2.60;99.90;;;;;;5138116;27;20450;-62
2022/12/08 01:58:55;;;;;;;2.60;1.00;;;2.60;99.90;;;;;;5137463;27;20444;-62
2022/12/08 02:01:23;;;;;;;1.90;0.80;;;2.70;99.90;;;;;;5138176;27;20462;-62
2022/12/08 02:03:54;;;;;;;2.20;1.00;;;2.70;99.90;;;;;;5136847;27;21263;-62
2022/12/08 02:06:22;;;;;;;2.93;1.00;;;2.70;99.90;;;;;;5137954;27;20461;-62
2022/12/08 02:08:50;;;;;;;2.53;1.10;;;2.60;99.90;;;;;;5137986;27;20414;-63
2022/12/08 02:11:20;;;;;;;1.40;0.80;;;2.40;99.90;;;;;;5138680;27;20530;-62
2022/12/08 02:13:49;;;;;;;1.73;0.87;;;2.20;99.90;;;;;;5138575;27;20515;-62
2022/12/08 02:16:28;;;;;;;2.30;0.80;;;2.10;99.90;;;;;;5138173;27;20486;-62
2022/12/08 02:19:04;;;;;;;1.97;0.93;;;2.10;99.90;;;;;;5137953;27;20508;-62
2022/12/08 02:21:38;;;;;;;3.27;0.97;;;2.00;99.90;;;;;;5137978;27;20447;-62
2022/12/08 02:24:12;;;;;;;2.03;0.87;;;2.00;99.90;;;;;;5137778;27;20444;-61
2022/12/08 02:27:06;;;;;;;6.27;1.53;;;2.00;99.90;;;;;;5137581;27;20535;-62
2022/12/08 02:30:06;;;;;;;2.57;0.90;;;2.00;99.90;;;;;;5137842;27;20451;-62
2022/12/08 02:33:07;;;;;;;3.63;1.13;;;2.00;99.90;;;;;;5137437;27;20486;-62
2022/12/08 02:35:45;;;;;;;2.63;0.90;;;1.90;99.90;;;;;;5137338;27;20447;-62
2022/12/08 02:38:21;;;;;;;2.20;0.90;;;1.90;99.90;;;;;;5137924;27;20537;-61
2022/12/08 02:40:55;;;;;;;4.47;1.00;;;1.80;99.90;;;;;;5137743;27;20539;-61
2022/12/08 02:43:29;;;;;;;3.60;1.20;;;1.80;99.90;;;;;;5137885;27;20422;-61
2022/12/08 02:46:01;;;;;;;2.43;1.10;;;1.70;99.90;;;;;;5136925;27;20506;-61
2022/12/08 02:48:29;;;;;;;3.43;1.10;;;1.70;99.90;;;;;;5137687;27;20434;-61
2022/12/08 02:50:57;;;;;;;2.73;1.13;;;1.80;99.90;;;;;;5136558;27;20490;-61
2022/12/08 02:53:24;;;;;;;1.60;0.90;;;2.00;99.90;;;;;;5137316;27;20475;-61
2022/12/08 02:56:00;;;;;;;3.50;1.10;;;2.00;99.90;;;;;;5137256;27;20447;-61
2022/12/08 02:58:53;;;;;;;2.90;1.20;;;2.20;99.90;;;;;;5136847;27;20534;-62
2022/12/08 03:01:44;;;;;;;2.60;0.90;;;2.10;99.90;;;;;;5137239;27;20956;-61
2022/12/08 03:04:20;;;;;;;2.57;1.27;;;2.00;99.90;;;;;;5135744;27;20461;-61
2022/12/08 03:06:57;;;;;;;1.70;1.00;;;1.90;99.90;;;;;;5136306;27;20479;-61
2022/12/08 03:09:33;;;;;;;2.50;1.10;;;1.80;99.90;;;;;;5135609;27;20884;-61
2022/12/08 03:12:06;;;;;;;2.60;1.00;;;1.70;99.90;;;;;;5135684;27;20402;-61
2022/12/08 03:14:34;;;;;;;3.30;1.13;;;1.80;99.90;;;;;;5135844;28;20490;-61
2022/12/08 03:17:02;;;;;;;2.80;1.10;;;1.80;99.90;;;;;;5136125;28;20431;-61
2022/12/08 03:19:33;;;;;;;1.90;1.00;;;1.80;99.90;;;;;;5135719;27;20480;-61
2022/12/08 03:22:04;;;;;;;1.70;1.00;;;1.80;99.90;;;;;;5136363;28;20452;-61
2022/12/08 03:24:34;;;;;;;4.50;1.00;;;1.70;99.90;;;;;;5137234;28;20834;-62
2022/12/08 03:27:04;;;;;;;3.63;0.90;;;1.90;99.90;;;;;;5136701;28;20485;-63
2022/12/08 03:29:33;;;;;;;2.27;0.90;;;2.00;99.90;;;;;;5136805;27;20508;-62
2022/12/08 03:32:07;;;;;;;3.37;1.07;;;2.20;99.90;;;;;;5137028;28;20862;-62
2022/12/08 03:34:35;;;;;;;2.30;1.00;;;2.20;99.90;;;;;;5136859;28;20490;-61
2022/12/08 03:37:04;;;;;;;2.47;1.00;;;2.10;99.90;;;;;;5137566;28;20411;-61
2022/12/08 03:39:31;;;;;;;2.10;0.93;;;2.00;99.90;;;;;;5136608;28;20794;-61
2022/12/08 03:41:58;;;;;;;3.43;1.03;;;1.90;99.90;;;;;;5136703;28;20527;-61
2022/12/08 03:44:25;;;;;;;1.83;0.80;;;1.80;99.90;;;;;;5136752;28;20534;-61
2022/12/08 03:46:51;;;;;;;2.30;0.90;;;1.70;99.90;;;;;;5136492;28;20812;-67
2022/12/08 03:49:18;;;;;;;2.00;1.10;;;1.70;99.90;;;;;;5137004;28;20472;-61
2022/12/08 03:51:45;;;;;;;2.20;0.87;;;1.60;99.90;;;;;;5137126;28;20447;-61
2022/12/08 03:54:14;;;;;;;2.73;1.00;;;1.60;99.90;;;;;;5136600;28;20892;-61
2022/12/08 03:56:40;;;;;;;4.20;1.50;;;1.70;99.90;;;;;;5136891;28;20467;-61
2022/12/08 03:59:08;;;;;;;2.30;1.10;;;1.80;99.90;;;;;;5136567;28;20634;-61
2022/12/08 04:01:35;;;;;;;1.30;0.87;;;1.80;99.90;;;;;;5136633;28;20483;-61
2022/12/08 04:04:02;;;;;;;1.77;1.00;;;1.90;99.90;;;;;;5137988;27;20499;-61
2022/12/08 04:06:29;;;;;;;1.70;0.90;;;1.80;99.90;;;;;;5140735;27;20785;-61
2022/12/08 04:08:56;;;;;;;2.00;1.00;;;1.80;99.90;;;;;;5140034;27;20491;-61
2022/12/08 04:11:24;;;;;;;1.57;0.90;;;1.90;99.90;;;;;;5140808;27;20492;-62
2022/12/08 04:13:51;;;;;;;1.13;0.90;;;1.80;99.90;;;;;;5140326;27;20507;-62
2022/12/08 04:16:20;;;;;;;2.60;0.93;;;1.70;99.90;;;;;;5140674;27;20452;-61
2022/12/08 04:18:47;;;;;;;2.83;0.87;;;1.60;99.90;;;;;;5141020;27;20505;-62
2022/12/08 04:21:14;;;;;;;2.40;1.00;;;1.50;99.90;;;;;;5138087;27;20550;-61
2022/12/08 04:23:41;;;;;;;1.90;0.90;;;1.40;99.90;;;;;;5137875;27;20447;-61
2022/12/08 04:26:09;;;;;;;1.53;0.80;;;1.30;99.90;;;;;;5138070;27;20554;-61
2022/12/08 04:28:37;;;;;;;2.00;0.83;;;1.30;99.90;;;;;;5137513;27;20891;-61
2022/12/08 04:31:04;;;;;;;1.70;0.90;;;1.40;99.90;;;;;;5137978;27;20496;-64
2022/12/08 04:33:32;;;;;;;1.70;1.00;;;1.40;99.90;;;;;;5138447;27;20485;-61
2022/12/08 04:35:58;;;;;;;3.37;1.00;;;1.70;99.90;;;;;;5139096;27;20553;-61
2022/12/08 04:38:27;;;;;;;3.30;0.90;;;1.90;99.90;;;;;;5139217;27;20713;-61
2022/12/08 04:40:54;;;;;;;4.07;0.90;;;1.90;99.90;;;;;;5140410;27;20452;-61
2022/12/08 04:43:21;;;;;;;2.70;1.20;;;1.80;99.90;;;;;;5139621;27;20502;-61
2022/12/08 04:45:50;;;;;;;2.17;0.97;;;1.80;99.90;;;;;;5139327;27;20498;-61
2022/12/08 04:48:17;;;;;;;3.20;1.00;;;1.80;99.90;;;;;;5139719;27;20422;-61
2022/12/08 04:50:45;;;;;;;2.37;1.00;;;1.70;99.90;;;;;;5139452;27;20914;-61
2022/12/08 04:53:13;;;;;;;2.60;1.13;;;1.70;99.90;;;;;;5139389;27;20816;-62
2022/12/08 04:55:42;;;;;;;2.43;1.10;;;1.70;99.90;;;;;;5139880;27;20479;-62
2022/12/08 04:58:12;;;;;;;4.03;1.00;;;1.90;99.90;;;;;;5139694;27;20446;-62
2022/12/08 05:00:39;;;;;;;1.93;0.87;;;2.10;99.90;;;;;;5140091;27;20538;-62
2022/12/08 05:03:08;;;;;;;2.30;1.20;;;2.20;99.90;;;;;;5138381;27;20458;-61
2022/12/08 05:05:35;;;;;;;2.93;1.07;;;2.10;99.90;;;;;;5139016;27;20446;-62
2022/12/08 05:08:02;;;;;;;2.60;1.00;;;1.90;99.90;;;;;;5139402;27;20475;-63
2022/12/08 05:10:28;;;;;;;2.27;0.90;;;1.60;99.90;;;;;;5139329;27;20491;-61
2022/12/08 05:12:55;;;;;;;2.17;0.70;;;1.40;99.90;;;;;;5137792;27;20475;-61
2022/12/08 05:15:22;;;;;;;3.17;1.30;;;1.30;99.90;;;;;;5137229;27;20574;-61
2022/12/08 05:17:49;;;;;;;1.70;0.77;;;1.20;99.90;;;;;;5138054;27;20463;-61
2022/12/08 05:20:18;;;;;;;2.30;0.90;;;1.20;99.90;;;;;;5137678;27;20903;-61
2022/12/08 05:22:45;;;;;;;1.40;0.80;;;1.20;99.90;;;;;;5137429;27;20526;-61
2022/12/08 05:25:12;;;;;;;2.57;0.80;;;1.10;99.90;;;;;;5137711;27;20487;-61
2022/12/08 05:27:38;;;;;;;2.97;0.90;;;1.10;99.90;;;;;;5137634;27;20504;-61
2022/12/08 05:30:07;;;;;;;4.07;1.10;;;1.20;99.90;;;;;;5138117;27;20483;-61
2022/12/08 05:32:34;;;;;;;2.27;1.23;;;1.30;99.90;;;;;;5137098;27;20479;-61
2022/12/08 05:35:00;;;;;;;4.70;1.43;;;1.40;99.90;;;;;;5135613;27;20583;-61
2022/12/08 05:37:29;;;;;;;2.27;1.10;;;1.50;99.90;;;;;;5136399;27;20518;-61
2022/12/08 05:39:56;;;;;;;2.10;0.70;;;1.50;99.90;;;;;;5136711;27;20494;-60
2022/12/08 05:42:22;;;;;;;1.30;0.70;;;1.40;99.90;;;;;;5136876;27;20801;-61
2022/12/08 05:44:49;;;;;;;3.00;0.90;;;1.30;99.90;;;;;;5136040;27;20528;-61
2022/12/08 05:47:16;;;;;;;2.23;0.73;;;1.30;99.90;;;;;;5136151;27;20463;-61
2022/12/08 05:49:43;;;;;;;1.67;0.93;;;1.40;99.90;;;;;;5137452;27;20487;-61
2022/12/08 05:52:10;;;;;;;2.87;0.90;;;1.50;99.90;;;;;;5137581;27;20944;-61
2022/12/08 05:54:39;;;;;;;2.40;0.90;;;1.60;99.90;;;;;;5138188;27;20858;-61
2022/12/08 05:57:06;;;;;;;2.37;1.00;;;1.70;99.90;;;;;;5138092;27;20462;-61
2022/12/08 05:59:33;;;;;;;1.60;1.10;;;1.70;99.90;;;;;;5137755;27;20883;-61
2022/12/08 06:02:00;;;;;;;2.10;1.10;;;1.70;99.90;;;;;;5137123;27;20475;-60
2022/12/08 06:04:27;;;;;;;2.47;1.00;;;1.60;99.90;;;;;;5136611;27;20503;-61
2022/12/08 06:06:54;;;;;;;1.40;0.90;;;1.60;99.90;;;;;;5136741;27;20444;-61
2022/12/08 06:09:21;;;;;;;2.47;0.83;;;1.60;99.90;;;;;;5136994;27;20512;-61
2022/12/08 06:11:49;;;;;;;4.07;0.97;;;1.70;99.90;;;;;;5136169;27;20914;-61
2022/12/08 06:14:16;;;;;;;3.60;1.10;;;1.60;99.90;;;;;;5136631;27;20511;-61
2022/12/08 06:16:43;;;;;;;1.10;0.80;;;1.60;99.90;;;;;;5137089;27;20438;-61
2022/12/08 06:19:10;;;;;;;1.70;0.90;;;1.60;99.90;;;;;;5135379;27;20821;-61
2022/12/08 06:21:37;;;;;;;1.73;0.97;;;1.60;99.90;;;;;;5135130;27;20446;-61
2022/12/08 06:24:04;;;;;;;3.33;0.90;;;1.70;99.90;;;;;;5136503;27;20509;-61
2022/12/08 06:26:31;;;;;;;6.83;2.17;;;1.70;99.90;;;;;;5134171;27;20780;-61
2022/12/08 06:28:59;;;;;;;2.00;0.90;;;1.70;99.90;;;;;;5133964;27;20490;-61
2022/12/08 06:31:27;;;;;;;4.10;1.00;;;1.80;99.90;;;;;;5134718;27;20692;-60
2022/12/08 06:33:55;;;;;;;4.90;1.30;;;1.80;99.90;;;;;;5135353;27;20439;-59
2022/12/08 06:36:23;;;;;;;4.20;1.40;;;2.10;99.90;;;;;;5134437;27;20485;-59
2022/12/08 06:38:51;;;;;;;2.87;1.20;;;2.00;99.90;;;;;;5136175;27;20763;-59
2022/12/08 06:41:18;;;;;;;1.77;0.80;;;1.90;99.90;;;;;;5138158;27;20516;-59
2022/12/08 06:43:46;;;;;;;1.70;0.63;;;1.80;99.90;;;;;;5135767;27;20454;-59
2022/12/08 06:46:16;;;;;;;2.20;0.80;;;1.40;99.90;;;;;;5136234;27;20446;-59
2022/12/08 06:48:43;;;;;;;1.00;0.63;;;1.20;99.90;;;;;;5135783;27;20447;-59
2022/12/08 06:51:12;;;;;;;1.90;0.80;;;1.20;99.90;;;;;;5135566;27;20500;-59
2022/12/08 06:53:39;;;;;;;1.30;0.70;;;1.30;99.90;;;;;;5136448;27;20479;-59
2022/12/08 06:56:07;;;;;;;1.10;0.57;;;1.60;99.90;;;;;;5136209;27;20519;-59
2022/12/08 06:58:34;;;;;;;1.47;0.60;;;1.60;99.90;;;;;;5134315;27;20871;-59
2022/12/08 07:01:05;;;;;;;1.90;0.80;;;1.40;99.90;;;;;;5133727;27;20539;-63
2022/12/08 07:03:33;;;;;;;2.20;0.90;;;1.30;99.90;;;;;;5132380;27;20538;-59
2022/12/08 07:06:00;;;;;;;1.50;0.87;;;1.40;99.90;;;;;;5130992;27;20479;-60
2022/12/08 07:08:27;;;;;;;2.30;1.20;;;1.50;99.90;;;;;;5131801;27;20497;-59
2022/12/08 07:10:54;;;;;;;1.90;0.90;;;1.60;99.90;;;;;;5133074;27;20509;-59
2022/12/08 07:13:21;;;;;;;1.23;0.70;;;1.60;99.90;;;;;;5131990;27;20751;-59
2022/12/08 07:15:48;;;;;;;1.23;0.60;;;1.50;99.90;;;;;;5133929;27;21026;-59
2022/12/08 07:18:15;;;;;;;2.10;0.77;;;1.30;99.90;;;;;;5134342;27;20501;-60
2022/12/08 07:20:43;;;;;;;2.47;0.80;;;1.20;99.90;;;;;;5135080;28;20585;-59
2022/12/08 07:23:10;;;;;;;3.33;0.83;;;1.10;99.90;;;;;;5134494;28;20880;-59
2022/12/08 07:25:37;;;;;;;1.67;0.87;;;1.00;99.90;;;;;;5134025;28;20452;-59
2022/12/08 07:28:09;;;;;;;2.07;0.77;;;1.00;99.90;;;;;;5133834;28;20492;-59
2022/12/08 07:30:36;;;;;;;1.37;0.70;;;0.90;99.90;;;;;;5132857;28;20546;-61
2022/12/08 07:33:03;;;;;;;1.30;0.80;;;1.00;99.90;;;;;;5133557;28;20526;-59
2022/12/08 07:35:30;;;;;;;1.63;0.67;;;1.00;99.90;;;;;;5133807;28;20482;-59
2022/12/08 07:37:58;;;;;;;5.83;1.13;;;1.10;99.90;;;;;;5135126;27;20467;-59
2022/12/08 07:40:25;;;;;;;1.33;0.70;;;1.10;99.90;;;;;;5138837;27;20494;-59
2022/12/08 07:42:52;;;;;;;2.63;1.20;;;1.10;99.90;;;;;;5137273;27;20978;-59
2022/12/08 07:45:19;;;;;;;3.20;0.80;;;1.10;99.90;;;;;;5137082;27;20512;-59
2022/12/08 07:47:46;;;;;;;2.10;0.70;;;1.10;99.90;;;;;;5137775;27;20509;-59
2022/12/08 07:50:13;;;;;;;1.97;0.70;;;1.10;99.90;;;;;;5138907;27;20905;-59
2022/12/08 07:52:40;;;;;;;2.13;0.83;;;1.20;99.90;;;;;;5138670;27;20515;-59
2022/12/08 07:55:09;;;;;;;2.27;0.70;;;1.10;99.90;;;;;;5138572;27;20487;-61
2022/12/08 07:57:36;;;;;;;2.03;0.87;;;1.10;99.90;;;;;;5138311;27;20798;-59
2022/12/08 08:00:04;;;;;;;2.20;0.70;;;1.30;99.90;;;;;;5138127;27;20812;-59
2022/12/08 08:02:31;;;;;;;1.40;0.60;;;1.50;99.90;;;;;;5137637;27;20443;-60
2022/12/08 08:04:58;;;;;;;0.87;0.50;;;1.50;99.90;;;;;;5123926;27;20559;-59
2022/12/08 08:07:25;;;;;;;4.33;0.70;;;1.50;99.90;;;;;;5116061;28;20795;-60
2022/12/08 08:09:52;;;;;;;3.63;0.80;;;1.90;99.90;;;;;;5116483;28;20545;-59
2022/12/08 08:12:20;;;;;;;4.47;0.80;;;2.10;99.90;;;;;;5116718;28;20451;-59
2022/12/08 08:14:47;;;;;;;1.90;0.70;;;2.20;99.90;;;;;;5117135;28;20960;-59
2022/12/08 08:17:14;;;;;;;1.70;0.93;;;2.10;99.90;;;;;;5117020;28;20480;-59
2022/12/08 08:19:41;;;;;;;1.00;0.60;;;2.00;99.90;;;;;;5116074;28;20518;-59
2022/12/08 08:22:08;;;;;;;3.53;0.90;;;1.90;99.90;;;;;;5116381;28;20671;-59
2022/12/08 08:24:35;;;;;;;1.47;0.73;;;1.90;99.90;;;;;;5114483;28;20505;-59
2022/12/08 08:27:02;;;;;;;1.73;0.80;;;1.90;99.90;;;;;;5116402;28;20479;-59
2022/12/08 08:29:30;;;;;;;4.73;0.70;;;1.80;99.90;;;;;;5116835;28;20882;-59
2022/12/08 08:31:57;;;;;;;3.00;0.90;;;1.80;99.90;;;;;;5115879;28;20506;-59
2022/12/08 08:34:24;;;;;;;1.47;0.80;;;1.70;99.90;;;;;;5116474;28;20556;-59
2022/12/08 08:36:50;;;;;;;5.30;0.90;;;1.80;99.90;;;;;;5115060;28;20519;-60
2022/12/08 08:39:17;;;;;;;11.33;1.20;;;2.00;99.90;;;;;;5114693;28;20783;-60
2022/12/08 08:41:47;;;;;;;3.63;0.90;;;2.00;99.90;;;;;;5116051;28;20483;-60
2022/12/08 08:44:14;;;;;;;2.10;0.87;;;1.90;99.90;;;;;;5116343;28;20895;-60
2022/12/08 08:46:43;;;;;;;3.33;0.90;;;1.80;99.90;;;;;;5115958;28;20441;-60
2022/12/08 08:49:10;;;;;;;1.70;0.83;;;1.70;99.90;;;;;;5114866;28;20455;-59
2022/12/08 08:51:37;;;;;;;3.50;1.60;;;1.60;99.90;;;;;;5116149;28;20543;-59
2022/12/08 08:54:04;;;;;;;2.43;0.87;;;1.50;99.90;;;;;;5114654;28;20203;-59
2022/12/08 08:56:31;;;;;;;4.37;0.97;;;1.50;99.90;;;;;;5114677;28;20572;-59
2022/12/08 08:58:57;;;;;;;2.53;1.07;;;1.50;99.90;;;;;;5112861;27;20527;-59
2022/12/08 09:01:26;;;;;;;2.80;1.13;;;1.60;99.90;;;;;;5113956;28;20913;-60
2022/12/08 09:03:54;;;;;;;2.53;1.00;;;1.60;99.90;;;;;;5113234;28;20931;-60
2022/12/08 09:06:22;;;;;;;2.10;0.83;;;1.70;99.90;;;;;;5117415;28;20487;-60
2022/12/08 09:08:50;;;;;;;2.03;1.10;;;1.70;99.90;;;;;;5116221;28;20824;-60
2022/12/08 09:11:17;;;;;;;1.73;0.90;;;1.70;99.90;;;;;;5115372;28;20795;-60
2022/12/08 09:13:47;;;;;;;2.40;0.80;;;1.60;99.90;;;;;;5115825;28;20451;-59
2022/12/08 09:16:13;;;;;;;1.60;0.73;;;1.70;99.90;;;;;;5116557;28;20583;-59
2022/12/08 09:18:40;;;;;;;2.63;0.83;;;1.70;99.90;;;;;;5115958;28;20547;-59
2022/12/08 09:21:11;;;;;;;1.50;0.60;;;1.70;99.90;;;;;;5116581;28;20846;-59
2022/12/08 09:23:38;;;;;;;1.87;0.70;;;1.70;99.90;;;;;;5117508;28;20499;-59
2022/12/08 09:26:05;;;;;;;3.00;1.00;;;1.60;99.90;;;;;;5117025;28;20491;-60
2022/12/08 09:28:33;;;;;;;0.67;0.50;;;1.70;99.90;;;;;;5116141;28;20535;-59
2022/12/08 09:31:00;;;;;;;1.83;0.90;;;1.70;99.90;;;;;;5112531;28;20530;-58
2022/12/08 09:33:27;;;;;;;3.97;0.77;;;1.80;99.90;;;;;;5116036;28;20483;-58
2022/12/08 09:35:54;;;;;;;1.73;0.77;;;1.90;99.90;;;;;;5116401;28;20554;-58
2022/12/08 09:38:22;;;;;;;3.10;1.10;;;2.00;99.90;;;;;;5115507;28;20491;-58
2022/12/08 09:40:51;;;;;;;4.67;0.90;;;2.00;99.90;;;;;;5116225;28;20492;-58
2022/12/08 09:43:33;;;;;;;2.00;1.20;;;2.10;99.90;;;;;;5115375;28;20484;-59
2022/12/08 09:46:04;;;;;;;1.70;0.97;;;2.10;99.90;;;;;;5115884;28;20495;-58
2022/12/08 09:48:35;;;;;;;5.67;1.10;;;2.20;99.90;;;;;;5116489;28;20527;-59
2022/12/08 09:51:04;;;;;;;1.33;0.70;;;2.30;99.90;;;;;;5113068;28;20555;-58
2022/12/08 09:53:39;;;;;;;3.40;1.50;;;2.30;99.90;;;;;;5114268;28;20710;-58
2022/12/08 09:56:10;;;;;;;1.30;0.93;;;2.30;99.90;;;;;;5114530;28;20309;-59
2022/12/08 09:58:46;;;;;;;3.00;1.00;;;2.30;99.90;;;;;;5114509;28;20447;-60
2022/12/08 10:01:14;;;;;;;3.30;0.80;;;2.50;99.90;;;;;;5115662;28;20463;-59
2022/12/08 10:03:42;;;;;;;1.70;0.80;;;3.20;99.90;;;;;;5114837;28;20476;-59
2022/12/08 10:06:18;;;;;;;1.40;0.80;;;3.90;99.90;;;;;;5114475;28;20467;-59
2022/12/08 10:08:57;;;;;;;3.03;0.90;;;4.00;99.90;;;;;;5116137;28;20476;-58
2022/12/08 10:11:29;;;;;;;2.43;1.10;;;3.60;99.90;;;;;;5115583;28;20782;-58
2022/12/08 10:14:08;;;;;;;1.47;0.87;;;3.30;99.90;;;;;;5115614;28;20445;-58
2022/12/08 10:16:40;;;;;;;3.00;0.90;;;3.10;99.90;;;;;;5114544;28;20480;-58
2022/12/08 10:19:15;;;;;;;1.20;0.70;;;3.10;99.90;;;;;;5115445;28;20420;-58
2022/12/08 10:21:42;;;;;;;2.77;0.80;;;3.40;99.90;;;;;;5115113;28;20509;-58
2022/12/08 10:24:18;;;;;;;2.13;1.00;;;3.40;99.90;;;;;;5113776;28;20431;-58
2022/12/08 10:26:47;;;;;;;1.43;1.00;;;3.30;99.90;;;;;;5113646;28;20782;-59
2022/12/08 10:29:14;;;;;;;2.70;0.90;;;3.20;99.90;;;;;;5114090;28;20808;-58
2022/12/08 10:31:41;;;;;;;3.20;0.90;;;3.10;99.90;;;;;;5115411;28;20448;-58
2022/12/08 10:34:17;;;;;;;1.20;0.80;;;3.00;99.90;;;;;;5114538;28;20520;-58
2022/12/08 10:36:46;;;;;;;2.07;0.83;;;3.00;99.90;;;;;;5113417;28;20508;-58
2022/12/08 10:39:36;;;;;;;1.50;0.90;;;3.00;99.90;;;;;;5114539;28;20429;-58
2022/12/08 10:42:18;;;;;;;2.93;1.00;;;3.20;99.90;;;;;;5113661;28;20872;-58
2022/12/08 10:44:55;;;;;;;1.50;0.80;;;3.50;99.90;;;;;;5110915;28;20431;-58
2022/12/08 10:47:25;;;;;;;1.67;0.70;;;3.70;99.90;;;;;;5092892;28;20442;-58
2022/12/08 10:50:09;;;;;;;1.30;0.80;;;3.80;99.90;;;;;;5093138;28;20541;-58
2022/12/08 10:52:39;;;;;;;1.03;0.70;;;3.90;99.90;;;;;;5090392;28;20452;-58
2022/12/08 10:55:15;;;;;;;1.13;0.60;;;4.10;99.90;;;;;;5102014;28;20454;-58
2022/12/08 10:57:42;;;;;;;1.13;0.73;;;4.20;99.90;;;;;;5105691;28;20477;-59
2022/12/08 11:00:14;;;;;;;1.10;0.60;;;4.40;99.90;;;;;;5097011;28;20545;-59
2022/12/08 11:02:52;;;;;;;1.97;0.70;;;4.40;99.90;;;;;;5092878;28;20987;-59
2022/12/08 11:05:21;;;;;;;1.65;0.80;;;4.60;99.90;;;;;;5087812;28;20382;-63
2022/12/08 11:07:51;;;;;;;1.70;0.80;;;4.70;99.90;;;;;;5088066;28;20192;-58
2022/12/08 11:10:26;;;;;;;1.90;0.80;;;4.80;99.90;;;;;;5093211;28;20489;-50
2022/12/08 11:12:54;;;;;;;2.10;0.87;;;4.90;99.90;;;;;;5076631;28;20532;-51
2022/12/08 11:15:21;;;;;;;1.47;0.80;;;4.90;99.90;;;;;;5079728;28;20446;-52
2022/12/08 11:18:01;;;;;;;1.40;0.70;;;4.80;99.90;;;;;;5090558;28;20517;-53
2022/12/08 11:20:37;;;;;;;2.13;0.80;;;4.70;99.90;;;;;;5083068;28;20490;-51
2022/12/08 11:23:04;;;;;;;1.70;0.80;;;4.60;99.90;;;;;;5081753;28;20444;-52
2022/12/08 11:25:32;;;;;;;1.00;0.60;;;4.60;99.90;;;;;;5087460;28;20480;-51
2022/12/08 11:28:01;;;;;;;1.50;0.80;;;4.70;99.90;;;;;;5087604;28;20572;-50
2022/12/08 11:30:31;;;;;;;1.83;0.80;;;4.70;99.90;;;;;;5087352;28;20548;-52
2022/12/08 11:33:03;;;;;;;1.60;0.80;;;4.80;99.90;;;;;;5074637;28;20475;-53
2022/12/08 11:35:33;;;;;;;1.10;0.50;;;4.90;99.90;;;;;;5076208;28;21066;-54
2022/12/08 11:38:05;;;;;;;1.20;0.70;;;5.00;99.90;;;;;;5089157;28;21048;-51
2022/12/08 11:40:37;;;;;;;2.87;0.93;;;5.10;99.90;;;;;;5071811;28;20807;-52
2022/12/08 11:43:14;;;;;;;1.37;0.70;;;5.10;99.90;;;;;;5072384;28;20481;-52
2022/12/08 11:45:42;;;;;;;3.20;0.87;;;5.00;99.90;;;;;;5082694;28;20446;-53
2022/12/08 11:48:14;;;;;;;1.00;0.70;;;5.00;99.90;;;;;;5079250;28;20473;-52
2022/12/08 11:50:45;;;;;;;1.77;0.90;;;5.00;99.90;;;;;;5090305;28;20492;-53
2022/12/08 11:53:23;;;;;;;0.97;0.60;;;5.10;99.90;;;;;;5076458;28;20477;-52
2022/12/08 11:55:57;;;;;;;3.07;1.10;;;5.00;99.90;;;;;;5074054;28;20663;-51
2022/12/08 11:58:29;;;;;;;2.67;1.07;;;5.10;99.90;;;;;;5083675;28;20450;-49
2022/12/08 12:00:56;;;;;;;3.17;1.00;;;5.10;99.90;;;;;;5073927;28;20486;-54
2022/12/08 12:03:29;;;;;;;2.87;0.80;;;5.10;99.90;;;;;;5085824;28;20454;-50
2022/12/08 12:06:34;;;;;;;1.10;0.60;;;5.10;99.90;;;;;;5094510;28;20581;-55
2022/12/08 12:09:13;;;;;;;1.50;0.60;;;5.00;99.90;;;;;;5028830;28;20483;-55
2022/12/08 12:15:08;;;;;;;1.20;0.70;;;4.90;99.90;;;;;;5108293;28;20440;-55
2022/12/08 12:17:44;;;;;;;2.00;0.70;;;5.10;99.90;;;;;;5054721;28;20533;-54
2022/12/08 12:20:18;;;;;;;1.53;0.77;;;4.90;99.90;;;;;;5114884;28;20543;-54
2022/12/08 12:22:49;;;;;;;1.30;0.80;;;4.80;99.90;;;;;;5114659;28;20813;-53
2022/12/08 12:25:20;;;;;;;1.43;0.80;;;4.80;99.90;;;;;;5115156;28;20930;-49
2022/12/08 12:27:50;;;;;;;1.40;0.73;;;4.80;99.90;;;;;;5116987;28;20952;-53
2022/12/08 12:30:22;;;;;;;1.10;0.60;;;4.80;99.90;;;;;;5116053;28;20567;-54
2022/12/08 12:32:56;;;;;;;2.57;0.77;;;4.70;99.90;;;;;;5117203;28;20433;-51
2022/12/08 12:35:32;;;;;;;2.07;0.50;;;4.60;99.90;;;;;;5116192;28;20541;-52
2022/12/08 12:38:03;;;;;;;1.07;0.60;;;4.90;99.90;;;;;;5115910;28;20912;-52
2022/12/08 12:40:39;;;;;;;1.20;0.60;;;4.90;99.90;;;;;;5114238;28;20562;-54
2022/12/08 12:43:28;;;;;;;1.20;0.60;;;5.00;99.90;;;;;;5115637;28;20444;-54
2022/12/08 12:46:28;;;;;;;1.63;0.60;;;4.90;99.90;;;;;;5115919;28;20453;-51
2022/12/08 12:49:34;;;;;;;1.27;0.60;;;4.80;99.90;;;;;;5115571;28;20528;-54
2022/12/08 12:52:01;;;;;;;1.40;0.63;;;4.70;99.90;;;;;;5116786;28;20490;-53
2022/12/08 12:54:28;;;;;;;1.10;0.70;;;4.70;99.90;;;;;;5116086;28;20484;-55
2022/12/08 12:57:14;;;;;;;2.03;0.80;;;4.80;99.90;;;;;;5115279;28;20931;-55
2022/12/08 12:59:45;;;;;;;1.10;0.67;;;4.80;99.90;;;;;;5116250;28;20538;-50
2022/12/08 13:02:22;;;;;;;1.13;0.60;;;4.90;99.90;;;;;;5116745;28;20512;-52
2022/12/08 13:04:58;;;;;;;1.03;0.60;;;4.90;99.90;;;;;;5115270;28;20476;-53
2022/12/08 13:07:27;;;;;;;1.37;0.77;;;4.90;99.90;;;;;;5115756;28;20687;-53
2022/12/08 13:10:00;;;;;;;1.10;0.50;;;4.80;99.90;;;;;;5116445;28;20560;-52
2022/12/08 13:12:28;;;;;;;1.30;0.63;;;4.90;99.90;;;;;;5116399;28;20423;-52
2022/12/08 13:15:02;;;;;;;0.87;0.50;;;5.00;99.90;;;;;;5115502;28;20459;-54
2022/12/08 13:17:31;;;;;;;1.27;0.60;;;4.90;99.90;;;;;;5115193;28;20527;-54
2022/12/08 13:20:01;;;;;;;1.43;0.60;;;4.90;99.90;;;;;;5114784;28;20550;-52
2022/12/08 13:23:01;;;;;;;1.70;0.70;;;4.80;99.90;;;;;;5113831;28;20449;-54